sensor_id;sensor_type;location;lat;lon;timestamp;P1;durP1;ratioP1;P2;durP2;ratioP2
12441;SDS011;6285;48.804;9.220;2022-10-22T00:00:22;2.78;;;0.98;;
12441;SDS011;6285;48.804;9.220;2022-10-22T00:02:49;0.98;;;0.85;;
12441;SDS011;6285;48.804;9.220;2022-10-22T00:05:17;1.95;;;0.90;;
12441;SDS011;6285;48.804;9.220;2022-10-22T00:07:45;2.83;;;0.65;;
12441;SDS011;6285;48.804;9.220;2022-10-22T00:10:12;1.92;;;0.95;;
12441;SDS011;6285;48.804;9.220;2022-10-22T00:12:41;1.50;;;0.68;;
12441;SDS011;6285;48.804;9.220;2022-10-22T00:15:09;1.92;;;0.80;;
12441;SDS011;6285;48.804;9.220;2022-10-22T00:17:37;3.20;;;1.10;;
12441;SDS011;6285;48.804;9.220;2022-10-22T00:20:05;3.00;;;0.90;;
12441;SDS011;6285;48.804;9.220;2022-10-22T00:22:32;1.55;;;1.00;;
12441;SDS011;6285;48.804;9.220;2022-10-22T00:25:01;2.70;;;0.70;;
12441;SDS011;6285;48.804;9.220;2022-10-22T00:27:28;3.17;;;0.70;;
12441;SDS011;6285;48.804;9.220;2022-10-22T00:29:55;2.35;;;0.90;;
12441;SDS011;6285;48.804;9.220;2022-10-22T00:32:22;2.45;;;1.00;;
12441;SDS011;6285;48.804;9.220;2022-10-22T00:34:49;2.72;;;1.00;;
12441;SDS011;6285;48.804;9.220;2022-10-22T00:37:17;3.60;;;0.80;;
12441;SDS011;6285;48.804;9.220;2022-10-22T00:39:44;3.55;;;1.10;;
12441;SDS011;6285;48.804;9.220;2022-10-22T00:42:21;1.33;;;0.80;;
12441;SDS011;6285;48.804;9.220;2022-10-22T00:45:06;1.90;;;0.95;;
12441;SDS011;6285;48.804;9.220;2022-10-22T00:47:34;1.48;;;1.00;;
12441;SDS011;6285;48.804;9.220;2022-10-22T00:50:03;4.10;;;1.05;;
12441;SDS011;6285;48.804;9.220;2022-10-22T00:52:31;4.57;;;1.10;;
12441;SDS011;6285;48.804;9.220;2022-10-22T00:54:58;1.75;;;0.85;;
12441;SDS011;6285;48.804;9.220;2022-10-22T00:57:28;3.42;;;0.80;;
12441;SDS011;6285;48.804;9.220;2022-10-22T00:59:55;4.78;;;1.25;;
12441;SDS011;6285;48.804;9.220;2022-10-22T01:02:23;2.22;;;0.98;;
12441;SDS011;6285;48.804;9.220;2022-10-22T01:04:50;3.45;;;0.90;;
12441;SDS011;6285;48.804;9.220;2022-10-22T01:07:18;1.13;;;0.70;;
12441;SDS011;6285;48.804;9.220;2022-10-22T01:09:47;0.77;;;0.50;;
12441;SDS011;6285;48.804;9.220;2022-10-22T01:12:17;1.35;;;0.60;;
12441;SDS011;6285;48.804;9.220;2022-10-22T01:14:56;0.82;;;0.60;;
12441;SDS011;6285;48.804;9.220;2022-10-22T01:17:27;2.63;;;0.70;;
12441;SDS011;6285;48.804;9.220;2022-10-22T01:19:58;3.72;;;0.90;;
12441;SDS011;6285;48.804;9.220;2022-10-22T01:22:30;2.92;;;1.00;;
12441;SDS011;6285;48.804;9.220;2022-10-22T01:24:58;2.13;;;0.93;;
12441;SDS011;6285;48.804;9.220;2022-10-22T01:27:34;1.52;;;0.70;;
12441;SDS011;6285;48.804;9.220;2022-10-22T01:30:09;1.70;;;0.70;;
12441;SDS011;6285;48.804;9.220;2022-10-22T01:32:38;2.42;;;1.08;;
12441;SDS011;6285;48.804;9.220;2022-10-22T01:35:07;1.08;;;0.70;;
12441;SDS011;6285;48.804;9.220;2022-10-22T01:37:39;1.42;;;0.73;;
12441;SDS011;6285;48.804;9.220;2022-10-22T01:40:09;3.08;;;0.80;;
12441;SDS011;6285;48.804;9.220;2022-10-22T01:42:36;3.03;;;1.00;;
12441;SDS011;6285;48.804;9.220;2022-10-22T01:45:10;1.20;;;0.68;;
12441;SDS011;6285;48.804;9.220;2022-10-22T01:47:55;0.98;;;0.70;;
12441;SDS011;6285;48.804;9.220;2022-10-22T01:50:32;4.57;;;1.00;;
12441;SDS011;6285;48.804;9.220;2022-10-22T01:53:06;1.33;;;0.90;;
12441;SDS011;6285;48.804;9.220;2022-10-22T01:56:05;3.08;;;0.90;;
12441;SDS011;6285;48.804;9.220;2022-10-22T01:58:37;1.58;;;0.63;;
12441;SDS011;6285;48.804;9.220;2022-10-22T02:01:12;3.17;;;0.80;;
12441;SDS011;6285;48.804;9.220;2022-10-22T02:03:44;1.75;;;0.80;;
12441;SDS011;6285;48.804;9.220;2022-10-22T02:06:16;1.92;;;1.13;;
12441;SDS011;6285;48.804;9.220;2022-10-22T02:08:47;1.50;;;0.85;;
12441;SDS011;6285;48.804;9.220;2022-10-22T02:11:15;1.92;;;1.05;;
12441;SDS011;6285;48.804;9.220;2022-10-22T02:13:43;4.65;;;1.08;;
12441;SDS011;6285;48.804;9.220;2022-10-22T02:16:14;1.33;;;0.85;;
12441;SDS011;6285;48.804;9.220;2022-10-22T02:18:42;3.35;;;1.25;;
12441;SDS011;6285;48.804;9.220;2022-10-22T02:21:10;3.20;;;1.00;;
12441;SDS011;6285;48.804;9.220;2022-10-22T02:23:44;1.15;;;1.00;;
12441;SDS011;6285;48.804;9.220;2022-10-22T02:26:13;1.90;;;0.80;;
12441;SDS011;6285;48.804;9.220;2022-10-22T02:28:43;3.70;;;0.95;;
12441;SDS011;6285;48.804;9.220;2022-10-22T03:11:13;1.45;;;1.00;;
12441;SDS011;6285;48.804;9.220;2022-10-22T03:17:11;2.03;;;0.70;;
12441;SDS011;6285;48.804;9.220;2022-10-22T04:07:06;2.85;;;0.90;;
12441;SDS011;6285;48.804;9.220;2022-10-22T04:10:10;0.93;;;0.70;;
12441;SDS011;6285;48.804;9.220;2022-10-22T04:19:30;2.85;;;1.05;;
12441;SDS011;6285;48.804;9.220;2022-10-22T04:25:31;2.30;;;0.90;;
12441;SDS011;6285;48.804;9.220;2022-10-22T04:31:22;1.40;;;0.98;;
12441;SDS011;6285;48.804;9.220;2022-10-22T04:56:11;1.35;;;0.63;;
12441;SDS011;6285;48.804;9.220;2022-10-22T04:58:53;1.00;;;0.60;;
12441;SDS011;6285;48.804;9.220;2022-10-22T05:02:32;1.95;;;0.50;;
12441;SDS011;6285;48.804;9.220;2022-10-22T05:07:32;1.60;;;0.70;;
12441;SDS011;6285;48.804;9.220;2022-10-22T05:23:31;1.50;;;0.73;;
12441;SDS011;6285;48.804;9.220;2022-10-22T06:24:37;1.73;;;0.70;;
12441;SDS011;6285;48.804;9.220;2022-10-22T07:40:33;2.47;;;1.05;;
12441;SDS011;6285;48.804;9.220;2022-10-22T07:43:38;2.35;;;1.00;;
12441;SDS011;6285;48.804;9.220;2022-10-22T07:52:34;1.83;;;1.05;;
12441;SDS011;6285;48.804;9.220;2022-10-22T07:58:33;2.25;;;1.00;;
12441;SDS011;6285;48.804;9.220;2022-10-22T08:01:08;3.75;;;1.40;;
12441;SDS011;6285;48.804;9.220;2022-10-22T09:53:03;2.17;;;0.77;;
12441;SDS011;6285;48.804;9.220;2022-10-22T10:29:09;3.28;;;1.15;;
12441;SDS011;6285;48.804;9.220;2022-10-22T10:43:31;1.42;;;0.85;;
12441;SDS011;6285;48.804;9.220;2022-10-22T10:46:37;1.98;;;0.85;;
12441;SDS011;6285;48.804;9.220;2022-10-22T10:49:13;1.67;;;0.73;;
12441;SDS011;6285;48.804;9.220;2022-10-22T10:51:53;1.05;;;0.65;;
12441;SDS011;6285;48.804;9.220;2022-10-22T10:54:44;1.33;;;0.82;;
12441;SDS011;6285;48.804;9.220;2022-10-22T10:57:23;2.10;;;0.90;;
12441;SDS011;6285;48.804;9.220;2022-10-22T11:00:19;3.15;;;1.20;;
12441;SDS011;6285;48.804;9.220;2022-10-22T11:06:11;3.05;;;1.00;;
12441;SDS011;6285;48.804;9.220;2022-10-22T11:08:51;1.25;;;0.70;;
12441;SDS011;6285;48.804;9.220;2022-10-22T11:11:33;2.38;;;1.13;;
12441;SDS011;6285;48.804;9.220;2022-10-22T11:14:04;2.10;;;0.90;;
12441;SDS011;6285;48.804;9.220;2022-10-22T11:16:48;6.50;;;1.90;;
12441;SDS011;6285;48.804;9.220;2022-10-22T11:32:59;2.65;;;1.00;;
12441;SDS011;6285;48.804;9.220;2022-10-22T11:38:21;2.05;;;0.93;;
12441;SDS011;6285;48.804;9.220;2022-10-22T11:40:50;4.25;;;1.50;;
12441;SDS011;6285;48.804;9.220;2022-10-22T11:46:24;1.77;;;1.00;;
12441;SDS011;6285;48.804;9.220;2022-10-22T11:49:14;3.60;;;1.00;;
12441;SDS011;6285;48.804;9.220;2022-10-22T11:51:52;2.38;;;1.35;;
12441;SDS011;6285;48.804;9.220;2022-10-22T11:54:38;1.17;;;0.90;;
12441;SDS011;6285;48.804;9.220;2022-10-22T11:57:25;2.47;;;1.13;;
12441;SDS011;6285;48.804;9.220;2022-10-22T12:03:02;3.72;;;1.38;;
12441;SDS011;6285;48.804;9.220;2022-10-22T12:05:52;4.90;;;2.60;;
12441;SDS011;6285;48.804;9.220;2022-10-22T12:11:19;4.35;;;1.00;;
12441;SDS011;6285;48.804;9.220;2022-10-22T12:16:47;2.22;;;0.90;;
12441;SDS011;6285;48.804;9.220;2022-10-22T12:19:31;1.60;;;1.10;;
12441;SDS011;6285;48.804;9.220;2022-10-22T12:25:08;4.13;;;1.48;;
12441;SDS011;6285;48.804;9.220;2022-10-22T12:27:56;2.50;;;1.10;;
12441;SDS011;6285;48.804;9.220;2022-10-22T12:30:31;3.42;;;1.30;;
12441;SDS011;6285;48.804;9.220;2022-10-22T12:33:00;2.53;;;1.10;;
12441;SDS011;6285;48.804;9.220;2022-10-22T12:35:42;4.60;;;1.50;;
12441;SDS011;6285;48.804;9.220;2022-10-22T12:38:12;2.45;;;1.40;;
12441;SDS011;6285;48.804;9.220;2022-10-22T12:41:01;2.05;;;1.13;;
12441;SDS011;6285;48.804;9.220;2022-10-22T12:43:44;2.95;;;1.15;;
12441;SDS011;6285;48.804;9.220;2022-10-22T12:46:28;4.28;;;1.60;;
12441;SDS011;6285;48.804;9.220;2022-10-22T12:48:57;2.28;;;0.85;;
12441;SDS011;6285;48.804;9.220;2022-10-22T12:51:28;2.72;;;0.85;;
12441;SDS011;6285;48.804;9.220;2022-10-22T12:54:03;3.20;;;0.73;;
12441;SDS011;6285;48.804;9.220;2022-10-22T12:56:49;3.63;;;0.98;;
12441;SDS011;6285;48.804;9.220;2022-10-22T12:59:29;2.33;;;0.90;;
12441;SDS011;6285;48.804;9.220;2022-10-22T13:02:15;3.47;;;1.60;;
12441;SDS011;6285;48.804;9.220;2022-10-22T13:05:14;2.78;;;0.90;;
12441;SDS011;6285;48.804;9.220;2022-10-22T13:08:02;3.65;;;1.30;;
12441;SDS011;6285;48.804;9.220;2022-10-22T13:10:50;1.83;;;0.98;;
12441;SDS011;6285;48.804;9.220;2022-10-22T13:13:32;2.90;;;0.98;;
12441;SDS011;6285;48.804;9.220;2022-10-22T13:16:12;2.22;;;0.88;;
12441;SDS011;6285;48.804;9.220;2022-10-22T13:21:25;2.55;;;0.90;;
12441;SDS011;6285;48.804;9.220;2022-10-22T13:27:02;2.15;;;0.90;;
12441;SDS011;6285;48.804;9.220;2022-10-22T13:32:26;1.67;;;1.00;;
12441;SDS011;6285;48.804;9.220;2022-10-22T13:35:13;3.10;;;1.00;;
12441;SDS011;6285;48.804;9.220;2022-10-22T13:38:07;2.15;;;1.10;;
12441;SDS011;6285;48.804;9.220;2022-10-22T13:40:48;2.22;;;1.20;;
12441;SDS011;6285;48.804;9.220;2022-10-22T13:43:19;4.65;;;1.30;;
12441;SDS011;6285;48.804;9.220;2022-10-22T13:45:52;1.80;;;1.10;;
12441;SDS011;6285;48.804;9.220;2022-10-22T13:51:15;2.05;;;1.05;;
12441;SDS011;6285;48.804;9.220;2022-10-22T13:56:30;11.07;;;5.90;;
12441;SDS011;6285;48.804;9.220;2022-10-22T13:59:11;7.43;;;5.28;;
12441;SDS011;6285;48.804;9.220;2022-10-22T14:01:46;2.97;;;1.00;;
12441;SDS011;6285;48.804;9.220;2022-10-22T14:07:13;1.55;;;0.85;;
12441;SDS011;6285;48.804;9.220;2022-10-22T14:09:48;2.78;;;2.20;;
12441;SDS011;6285;48.804;9.220;2022-10-22T14:12:31;3.63;;;1.05;;
12441;SDS011;6285;48.804;9.220;2022-10-22T14:15:22;2.33;;;1.02;;
12441;SDS011;6285;48.804;9.220;2022-10-22T14:18:10;3.22;;;0.93;;
12441;SDS011;6285;48.804;9.220;2022-10-22T14:20:58;2.38;;;1.00;;
12441;SDS011;6285;48.804;9.220;2022-10-22T14:26:42;3.47;;;1.00;;
12441;SDS011;6285;48.804;9.220;2022-10-22T14:29:51;1.13;;;0.75;;
12441;SDS011;6285;48.804;9.220;2022-10-22T14:32:25;3.45;;;1.20;;
12441;SDS011;6285;48.804;9.220;2022-10-22T14:34:53;2.28;;;1.10;;
12441;SDS011;6285;48.804;9.220;2022-10-22T14:37:35;2.90;;;1.17;;
12441;SDS011;6285;48.804;9.220;2022-10-22T14:40:29;2.70;;;1.30;;
12441;SDS011;6285;48.804;9.220;2022-10-22T14:43:00;3.22;;;1.15;;
12441;SDS011;6285;48.804;9.220;2022-10-22T14:45:34;3.22;;;1.00;;
12441;SDS011;6285;48.804;9.220;2022-10-22T14:48:25;2.28;;;1.08;;
12441;SDS011;6285;48.804;9.220;2022-10-22T14:50:53;5.28;;;1.50;;
12441;SDS011;6285;48.804;9.220;2022-10-22T14:53:22;3.20;;;1.52;;
12441;SDS011;6285;48.804;9.220;2022-10-22T14:56:04;8.98;;;3.97;;
12441;SDS011;6285;48.804;9.220;2022-10-22T15:04:27;4.30;;;0.95;;
12441;SDS011;6285;48.804;9.220;2022-10-22T15:07:00;4.53;;;1.83;;
12441;SDS011;6285;48.804;9.220;2022-10-22T15:09:34;4.53;;;2.75;;
12441;SDS011;6285;48.804;9.220;2022-10-22T15:12:02;6.47;;;4.13;;
12441;SDS011;6285;48.804;9.220;2022-10-22T15:14:33;7.63;;;3.90;;
12441;SDS011;6285;48.804;9.220;2022-10-22T15:17:08;4.45;;;2.85;;
12441;SDS011;6285;48.804;9.220;2022-10-22T15:20:30;5.40;;;2.95;;
12441;SDS011;6285;48.804;9.220;2022-10-22T15:22:40;2.67;;;1.40;;
12441;SDS011;6285;48.804;9.220;2022-10-22T15:25:09;5.80;;;1.38;;
12441;SDS011;6285;48.804;9.220;2022-10-22T15:27:56;4.57;;;1.30;;
12441;SDS011;6285;48.804;9.220;2022-10-22T15:30:59;4.28;;;1.60;;
12441;SDS011;6285;48.804;9.220;2022-10-22T15:33:32;4.90;;;1.60;;
12441;SDS011;6285;48.804;9.220;2022-10-22T15:36:39;3.67;;;1.50;;
12441;SDS011;6285;48.804;9.220;2022-10-22T15:45:02;3.60;;;1.60;;
12441;SDS011;6285;48.804;9.220;2022-10-22T15:50:46;2.92;;;1.30;;
12441;SDS011;6285;48.804;9.220;2022-10-22T15:53:25;6.13;;;1.70;;
12441;SDS011;6285;48.804;9.220;2022-10-22T15:56:04;5.18;;;1.80;;
12441;SDS011;6285;48.804;9.220;2022-10-22T15:58:32;7.00;;;2.20;;
12441;SDS011;6285;48.804;9.220;2022-10-22T16:04:11;9.70;;;7.07;;
12441;SDS011;6285;48.804;9.220;2022-10-22T16:06:50;7.93;;;3.45;;
12441;SDS011;6285;48.804;9.220;2022-10-22T16:09:27;9.13;;;4.80;;
12441;SDS011;6285;48.804;9.220;2022-10-22T16:12:11;15.02;;;9.43;;
12441;SDS011;6285;48.804;9.220;2022-10-22T16:14:39;14.95;;;8.77;;
12441;SDS011;6285;48.804;9.220;2022-10-22T16:17:18;18.15;;;10.98;;
12441;SDS011;6285;48.804;9.220;2022-10-22T16:20:09;14.32;;;9.38;;
12441;SDS011;6285;48.804;9.220;2022-10-22T16:23:06;10.23;;;5.75;;
12441;SDS011;6285;48.804;9.220;2022-10-22T16:25:40;12.07;;;5.25;;
12441;SDS011;6285;48.804;9.220;2022-10-22T16:28:28;37.17;;;18.52;;
12441;SDS011;6285;48.804;9.220;2022-10-22T16:31:16;13.15;;;8.93;;
12441;SDS011;6285;48.804;9.220;2022-10-22T16:34:17;17.40;;;11.90;;
12441;SDS011;6285;48.804;9.220;2022-10-22T16:36:50;21.45;;;12.20;;
12441;SDS011;6285;48.804;9.220;2022-10-22T16:39:43;17.85;;;7.78;;
12441;SDS011;6285;48.804;9.220;2022-10-22T16:42:10;12.20;;;6.30;;
12441;SDS011;6285;48.804;9.220;2022-10-22T16:44:42;13.35;;;6.20;;
12441;SDS011;6285;48.804;9.220;2022-10-22T16:47:20;14.63;;;8.77;;
12441;SDS011;6285;48.804;9.220;2022-10-22T16:50:15;41.63;;;24.10;;
12441;SDS011;6285;48.804;9.220;2022-10-22T16:52:55;45.47;;;30.35;;
12441;SDS011;6285;48.804;9.220;2022-10-22T16:55:38;37.78;;;21.67;;
12441;SDS011;6285;48.804;9.220;2022-10-22T16:58:05;25.30;;;16.25;;
12441;SDS011;6285;48.804;9.220;2022-10-22T17:00:35;21.83;;;13.82;;
12441;SDS011;6285;48.804;9.220;2022-10-22T17:03:23;17.38;;;9.93;;
12441;SDS011;6285;48.804;9.220;2022-10-22T17:05:53;16.15;;;9.85;;
12441;SDS011;6285;48.804;9.220;2022-10-22T17:08:26;14.00;;;6.78;;
12441;SDS011;6285;48.804;9.220;2022-10-22T17:10:55;13.68;;;6.95;;
12441;SDS011;6285;48.804;9.220;2022-10-22T17:13:25;12.50;;;6.40;;
12441;SDS011;6285;48.804;9.220;2022-10-22T17:16:18;11.93;;;6.53;;
12441;SDS011;6285;48.804;9.220;2022-10-22T17:19:02;10.88;;;6.57;;
12441;SDS011;6285;48.804;9.220;2022-10-22T17:21:31;10.13;;;5.50;;
12441;SDS011;6285;48.804;9.220;2022-10-22T17:24:13;9.18;;;4.88;;
12441;SDS011;6285;48.804;9.220;2022-10-22T17:26:59;11.73;;;4.93;;
12441;SDS011;6285;48.804;9.220;2022-10-22T17:29:26;10.98;;;4.85;;
12441;SDS011;6285;48.804;9.220;2022-10-22T17:31:56;7.28;;;4.43;;
12441;SDS011;6285;48.804;9.220;2022-10-22T17:34:33;11.07;;;4.75;;
12441;SDS011;6285;48.804;9.220;2022-10-22T17:37:20;8.48;;;4.63;;
12441;SDS011;6285;48.804;9.220;2022-10-22T17:39:47;13.20;;;6.88;;
12441;SDS011;6285;48.804;9.220;2022-10-22T17:45:18;11.13;;;6.10;;
12441;SDS011;6285;48.804;9.220;2022-10-22T17:48:11;11.32;;;5.85;;
12441;SDS011;6285;48.804;9.220;2022-10-22T17:50:55;11.00;;;6.95;;
12441;SDS011;6285;48.804;9.220;2022-10-22T17:53:45;14.77;;;8.55;;
12441;SDS011;6285;48.804;9.220;2022-10-22T17:59:04;8.10;;;4.55;;
12441;SDS011;6285;48.804;9.220;2022-10-22T18:01:49;7.03;;;4.88;;
12441;SDS011;6285;48.804;9.220;2022-10-22T18:04:18;11.93;;;5.20;;
12441;SDS011;6285;48.804;9.220;2022-10-22T18:06:46;10.43;;;4.70;;
12441;SDS011;6285;48.804;9.220;2022-10-22T18:09:22;10.18;;;4.97;;
12441;SDS011;6285;48.804;9.220;2022-10-22T18:12:19;6.93;;;4.78;;
12441;SDS011;6285;48.804;9.220;2022-10-22T18:15:54;9.13;;;4.97;;
12441;SDS011;6285;48.804;9.220;2022-10-22T18:17:50;7.85;;;5.05;;
12441;SDS011;6285;48.804;9.220;2022-10-22T18:20:21;9.68;;;5.22;;
12441;SDS011;6285;48.804;9.220;2022-10-22T18:23:02;7.78;;;4.72;;
12441;SDS011;6285;48.804;9.220;2022-10-22T18:25:37;11.20;;;5.07;;
12441;SDS011;6285;48.804;9.220;2022-10-22T18:28:04;9.68;;;5.13;;
12441;SDS011;6285;48.804;9.220;2022-10-22T18:30:38;14.18;;;6.07;;
12441;SDS011;6285;48.804;9.220;2022-10-22T18:39:06;8.35;;;4.20;;
12441;SDS011;6285;48.804;9.220;2022-10-22T18:41:46;8.10;;;4.13;;
12441;SDS011;6285;48.804;9.220;2022-10-22T18:47:27;7.47;;;4.30;;
12441;SDS011;6285;48.804;9.220;2022-10-22T18:49:55;8.75;;;4.30;;
12441;SDS011;6285;48.804;9.220;2022-10-22T18:52:38;7.15;;;3.65;;
12441;SDS011;6285;48.804;9.220;2022-10-22T18:55:08;8.45;;;4.03;;
12441;SDS011;6285;48.804;9.220;2022-10-22T18:57:35;7.90;;;4.60;;
12441;SDS011;6285;48.804;9.220;2022-10-22T19:00:17;10.77;;;4.35;;
12441;SDS011;6285;48.804;9.220;2022-10-22T19:03:25;6.80;;;4.05;;
12441;SDS011;6285;48.804;9.220;2022-10-22T19:05:57;12.27;;;4.47;;
12441;SDS011;6285;48.804;9.220;2022-10-22T19:08:25;11.93;;;3.97;;
12441;SDS011;6285;48.804;9.220;2022-10-22T19:11:08;8.70;;;4.03;;
12441;SDS011;6285;48.804;9.220;2022-10-22T19:13:52;7.55;;;4.38;;
12441;SDS011;6285;48.804;9.220;2022-10-22T19:19:24;11.32;;;4.55;;
12441;SDS011;6285;48.804;9.220;2022-10-22T19:22:32;10.38;;;3.85;;
12441;SDS011;6285;48.804;9.220;2022-10-22T19:25:57;9.95;;;4.00;;
12441;SDS011;6285;48.804;9.220;2022-10-22T19:36:29;7.43;;;4.20;;
12441;SDS011;6285;48.804;9.220;2022-10-22T19:55:06;7.03;;;4.72;;
12441;SDS011;6285;48.804;9.220;2022-10-22T20:00:56;6.78;;;4.25;;
12441;SDS011;6285;48.804;9.220;2022-10-22T20:03:46;14.32;;;4.47;;
12441;SDS011;6285;48.804;9.220;2022-10-22T20:06:23;10.68;;;4.40;;
12441;SDS011;6285;48.804;9.220;2022-10-22T20:11:40;11.85;;;4.30;;
12441;SDS011;6285;48.804;9.220;2022-10-22T20:14:27;8.68;;;4.47;;
12441;SDS011;6285;48.804;9.220;2022-10-22T20:17:17;9.00;;;4.38;;
12441;SDS011;6285;48.804;9.220;2022-10-22T20:19:58;9.30;;;4.63;;
12441;SDS011;6285;48.804;9.220;2022-10-22T20:22:52;11.93;;;4.50;;
12441;SDS011;6285;48.804;9.220;2022-10-22T20:25:48;11.52;;;4.50;;
12441;SDS011;6285;48.804;9.220;2022-10-22T20:31:47;8.65;;;4.20;;
12441;SDS011;6285;48.804;9.220;2022-10-22T20:34:40;7.40;;;3.80;;
12441;SDS011;6285;48.804;9.220;2022-10-22T20:40:37;6.47;;;4.10;;
12441;SDS011;6285;48.804;9.220;2022-10-22T20:43:18;6.57;;;4.13;;
12441;SDS011;6285;48.804;9.220;2022-10-22T20:45:48;11.75;;;4.95;;
12441;SDS011;6285;48.804;9.220;2022-10-22T20:48:17;11.82;;;4.68;;
12441;SDS011;6285;48.804;9.220;2022-10-22T20:50:44;10.65;;;4.63;;
12441;SDS011;6285;48.804;9.220;2022-10-22T20:53:11;12.40;;;4.90;;
12441;SDS011;6285;48.804;9.220;2022-10-22T20:55:46;10.13;;;4.93;;
12441;SDS011;6285;48.804;9.220;2022-10-22T20:58:19;10.25;;;4.75;;
12441;SDS011;6285;48.804;9.220;2022-10-22T21:00:48;7.53;;;4.50;;
12441;SDS011;6285;48.804;9.220;2022-10-22T21:03:23;9.07;;;5.30;;
12441;SDS011;6285;48.804;9.220;2022-10-22T21:05:52;12.38;;;6.95;;
12441;SDS011;6285;48.804;9.220;2022-10-22T21:08:28;9.90;;;5.72;;
12441;SDS011;6285;48.804;9.220;2022-10-22T21:11:22;8.52;;;5.32;;
12441;SDS011;6285;48.804;9.220;2022-10-22T21:13:56;10.32;;;5.30;;
12441;SDS011;6285;48.804;9.220;2022-10-22T21:16:39;9.65;;;4.90;;
12441;SDS011;6285;48.804;9.220;2022-10-22T21:22:08;9.95;;;5.72;;
12441;SDS011;6285;48.804;9.220;2022-10-22T21:24:35;9.10;;;5.40;;
12441;SDS011;6285;48.804;9.220;2022-10-22T21:27:02;9.77;;;4.85;;
12441;SDS011;6285;48.804;9.220;2022-10-22T21:29:38;12.95;;;5.57;;
12441;SDS011;6285;48.804;9.220;2022-10-22T21:32:29;7.70;;;5.15;;
12441;SDS011;6285;48.804;9.220;2022-10-22T21:34:58;8.95;;;4.60;;
12441;SDS011;6285;48.804;9.220;2022-10-22T21:40:19;10.48;;;5.65;;
12441;SDS011;6285;48.804;9.220;2022-10-22T21:43:06;8.50;;;5.22;;
12441;SDS011;6285;48.804;9.220;2022-10-22T21:45:33;9.68;;;5.28;;
12441;SDS011;6285;48.804;9.220;2022-10-22T21:48:29;9.05;;;5.47;;
12441;SDS011;6285;48.804;9.220;2022-10-22T21:56:29;13.07;;;5.75;;
12441;SDS011;6285;48.804;9.220;2022-10-22T21:58:57;8.68;;;4.82;;
12441;SDS011;6285;48.804;9.220;2022-10-22T22:01:24;11.25;;;5.45;;
12441;SDS011;6285;48.804;9.220;2022-10-22T22:03:52;10.77;;;5.70;;
12441;SDS011;6285;48.804;9.220;2022-10-22T22:06:19;9.98;;;4.90;;
12441;SDS011;6285;48.804;9.220;2022-10-22T22:08:47;13.30;;;5.30;;
12441;SDS011;6285;48.804;9.220;2022-10-22T22:11:15;6.93;;;4.53;;
12441;SDS011;6285;48.804;9.220;2022-10-22T22:13:44;8.45;;;5.28;;
12441;SDS011;6285;48.804;9.220;2022-10-22T22:16:13;10.45;;;4.88;;
12441;SDS011;6285;48.804;9.220;2022-10-22T22:18:40;8.98;;;4.65;;
12441;SDS011;6285;48.804;9.220;2022-10-22T22:21:08;7.22;;;4.85;;
12441;SDS011;6285;48.804;9.220;2022-10-22T22:23:36;11.82;;;5.22;;
12441;SDS011;6285;48.804;9.220;2022-10-22T22:26:03;8.82;;;4.80;;
12441;SDS011;6285;48.804;9.220;2022-10-22T22:28:31;8.98;;;4.38;;
12441;SDS011;6285;48.804;9.220;2022-10-22T22:31:00;8.90;;;4.78;;
12441;SDS011;6285;48.804;9.220;2022-10-22T22:33:27;12.10;;;4.95;;
12441;SDS011;6285;48.804;9.220;2022-10-22T22:35:56;8.85;;;4.88;;
12441;SDS011;6285;48.804;9.220;2022-10-22T22:38:24;9.15;;;4.72;;
12441;SDS011;6285;48.804;9.220;2022-10-22T22:40:51;10.82;;;6.72;;
12441;SDS011;6285;48.804;9.220;2022-10-22T22:43:18;14.63;;;8.32;;
12441;SDS011;6285;48.804;9.220;2022-10-22T22:45:45;12.48;;;7.05;;
12441;SDS011;6285;48.804;9.220;2022-10-22T22:48:13;10.75;;;6.95;;
12441;SDS011;6285;48.804;9.220;2022-10-22T22:50:41;11.20;;;6.25;;
12441;SDS011;6285;48.804;9.220;2022-10-22T22:53:08;11.07;;;6.20;;
12441;SDS011;6285;48.804;9.220;2022-10-22T22:55:35;10.77;;;6.28;;
12441;SDS011;6285;48.804;9.220;2022-10-22T22:58:02;10.23;;;6.22;;
12441;SDS011;6285;48.804;9.220;2022-10-22T23:00:29;11.27;;;6.75;;
12441;SDS011;6285;48.804;9.220;2022-10-22T23:02:56;10.27;;;6.50;;
12441;SDS011;6285;48.804;9.220;2022-10-22T23:05:25;7.35;;;5.10;;
12441;SDS011;6285;48.804;9.220;2022-10-22T23:07:52;6.45;;;4.97;;
12441;SDS011;6285;48.804;9.220;2022-10-22T23:10:19;11.13;;;5.25;;
12441;SDS011;6285;48.804;9.220;2022-10-22T23:12:46;9.57;;;4.88;;
12441;SDS011;6285;48.804;9.220;2022-10-22T23:15:13;13.10;;;5.40;;
12441;SDS011;6285;48.804;9.220;2022-10-22T23:17:41;12.13;;;5.00;;
12441;SDS011;6285;48.804;9.220;2022-10-22T23:20:08;11.90;;;4.53;;
12441;SDS011;6285;48.804;9.220;2022-10-22T23:22:36;10.82;;;4.90;;
12441;SDS011;6285;48.804;9.220;2022-10-22T23:25:04;11.98;;;4.72;;
12441;SDS011;6285;48.804;9.220;2022-10-22T23:27:31;7.95;;;5.07;;
12441;SDS011;6285;48.804;9.220;2022-10-22T23:29:58;10.23;;;4.72;;
12441;SDS011;6285;48.804;9.220;2022-10-22T23:32:25;11.13;;;5.00;;
12441;SDS011;6285;48.804;9.220;2022-10-22T23:34:52;13.60;;;4.88;;
12441;SDS011;6285;48.804;9.220;2022-10-22T23:37:19;10.00;;;4.80;;
12441;SDS011;6285;48.804;9.220;2022-10-22T23:39:48;8.32;;;4.95;;
12441;SDS011;6285;48.804;9.220;2022-10-22T23:42:15;8.85;;;5.28;;
12441;SDS011;6285;48.804;9.220;2022-10-22T23:44:42;10.93;;;5.00;;
12441;SDS011;6285;48.804;9.220;2022-10-22T23:47:09;9.27;;;4.65;;
12441;SDS011;6285;48.804;9.220;2022-10-22T23:49:36;7.63;;;4.75;;
12441;SDS011;6285;48.804;9.220;2022-10-22T23:52:04;7.90;;;4.50;;
12441;SDS011;6285;48.804;9.220;2022-10-22T23:54:31;9.05;;;4.65;;
12441;SDS011;6285;48.804;9.220;2022-10-22T23:56:59;8.38;;;5.20;;
12441;SDS011;6285;48.804;9.220;2022-10-22T23:59:26;6.68;;;4.65;;
